Flight Number: EUR3087 Duration: 11:30
Departure: Bangkok Suvarnabhumi (VTBS) at 06:30 Distance: 5167 Nm
Arrival: Gatwick Airport (EGKK) at 18:00 Equipment: B747

Weather Information
Chon Buri, Thailand (VTBS) 13-22N 100-59E 2M Nov 18, 2017 - 06:30 AM EST / 2017.11.18 1130 UTC
Wind: from the SSW (200 degrees) at 6 MPH (5 KT):0
Visibility: 5 mile(s):0
Sky conditions: mostly clear Temperature: 86 F (30 C) Heat index: 93.4 F (34.1 C):1 Dew Point: 73 F (23 C) Relative Humidity: 66% Pressure (altimeter): 29.74 in. Hg (1007 hPa)
ob: VTBS 181130Z 20005KT 9000 FEW030 30/23 Q1007 NOSIG cycle: 11
Sunrise: 23:20 Sunset: 10:43 (UTC)

London / Gatwick Airport, United Kingdom (EGKK) 51-09N 000-11W 0M Nov 18, 2017 - 06:20 AM EST / 2017.11.18 1120 UTC
Wind: from the WSW (240 degrees) at 12 MPH (10 KT):0
Visibility: 5 mile(s):0
Sky conditions: mostly cloudy Temperature: 46 F (8 C) Dew Point: 44 F (7 C) Relative Humidity: 93% Pressure (altimeter): 30.21 in. Hg (1023 hPa)
ob: EGKK 181120Z 24010KT 9000 FEW007 BKN016 08/07 Q1023 cycle: 11
Sunrise: 07:28 Sunset: 16:04 (UTC)

TAF:2017/11/18 12:20 TAF EGKK 181104Z 1812/1918 26009KT 9999 BKN030 TEMPO 1812/1819 7000 -RADZ BKN012 PROB30 TEMPO 1812/1819 4000 RADZ BKN006

This route has never been flown.

Route map